createdAt,value
2023-03-31T00:01:15.481Z,4.53
2023-03-31T00:06:19.381Z,4.27
2023-03-31T00:11:23.885Z,4.20
2023-03-31T00:16:26.837Z,4.50
2023-03-31T00:21:34.118Z,4.53
2023-03-31T00:26:37.923Z,4.03
2023-03-31T00:31:40.160Z,4.20
2023-03-31T00:36:46.103Z,4.30
2023-03-31T00:41:49.479Z,4.30
2023-03-31T00:46:55.218Z,4.10
2023-03-31T00:52:05.412Z,4.00
2023-03-31T00:57:11.058Z,4.50
2023-03-31T01:02:17.645Z,4.10
2023-03-31T01:07:25.965Z,4.13
2023-03-31T01:12:30.029Z,4.50
2023-03-31T01:17:33.108Z,4.67
2023-03-31T01:23:07.263Z,4.87
2023-03-31T01:28:18.085Z,3.97
2023-03-31T01:33:55.704Z,4.07
2023-03-31T01:39:39.936Z,4.63
2023-03-31T01:44:47.625Z,4.33
2023-03-31T01:49:57.507Z,4.20
2023-03-31T01:55:08.447Z,4.17
2023-03-31T02:00:15.355Z,4.87
2023-03-31T02:05:20.756Z,4.33
2023-03-31T02:10:24.324Z,3.50
2023-03-31T02:15:32.794Z,3.43
2023-03-31T02:20:35.369Z,4.03
2023-03-31T02:25:46.456Z,3.80
2023-03-31T02:30:57.636Z,3.73
2023-03-31T02:36:00.305Z,3.60
2023-03-31T02:41:02.976Z,3.80
2023-03-31T02:46:06.692Z,3.47
2023-03-31T02:51:48.984Z,4.07
2023-03-31T02:57:06.961Z,4.23
2023-03-31T03:02:19.104Z,4.60
2023-03-31T03:07:26.973Z,4.27
2023-03-31T03:12:35.555Z,3.70
2023-03-31T03:17:42.722Z,4.10
2023-03-31T03:22:47.022Z,4.13
2023-03-31T03:27:49.339Z,4.20
2023-03-31T03:32:54.819Z,4.87
2023-03-31T03:37:56.875Z,4.87
2023-03-31T03:42:59.238Z,5.00
2023-03-31T03:48:02.962Z,3.90
2023-03-31T03:53:05.114Z,4.60
2023-03-31T03:58:07.678Z,3.57
2023-03-31T04:03:11.232Z,4.77
2023-03-31T04:08:15.466Z,3.93
2023-03-31T04:13:19.129Z,4.10
2023-03-31T04:18:24.108Z,4.20
2023-03-31T04:23:26.916Z,4.00
2023-03-31T04:28:35.088Z,4.00
2023-03-31T04:33:40.209Z,4.40
2023-03-31T04:38:42.618Z,4.20
2023-03-31T04:43:45.601Z,4.50
2023-03-31T04:48:49.494Z,3.83
2023-03-31T04:53:52.310Z,4.00
2023-03-31T04:58:55.116Z,4.27
2023-03-31T05:03:58.804Z,4.07
2023-03-31T05:09:00.840Z,4.23
2023-03-31T05:14:03.195Z,3.63
2023-03-31T05:19:46.980Z,3.37
2023-03-31T05:25:25.195Z,2.67
2023-03-31T05:30:28.026Z,3.93
2023-03-31T05:35:31.702Z,2.93
2023-03-31T05:40:34.191Z,3.33
2023-03-31T05:45:36.541Z,1.53
2023-03-31T05:50:40.576Z,2.97
2023-03-31T05:55:42.477Z,2.87
2023-03-31T06:00:45.601Z,2.57
2023-03-31T06:05:50.739Z,2.20
2023-03-31T06:10:53.076Z,2.40
2023-03-31T06:15:56.968Z,2.10
2023-03-31T06:21:00.743Z,1.60
2023-03-31T06:26:05.191Z,1.50
2023-03-31T06:31:09.500Z,1.80
2023-03-31T06:36:15.784Z,1.83
2023-03-31T06:41:18.954Z,1.63
2023-03-31T06:46:21.427Z,1.50
2023-03-31T06:51:25.126Z,1.60
2023-03-31T06:56:28.500Z,1.60
2023-03-31T07:01:31.758Z,1.20
2023-03-31T07:06:35.800Z,1.07
2023-03-31T07:11:38.067Z,1.03
2023-03-31T07:16:40.077Z,1.07
2023-03-31T07:21:43.473Z,1.23
2023-03-31T07:26:45.690Z,1.07
2023-03-31T07:31:48.990Z,1.17
2023-03-31T07:36:53.084Z,1.40
2023-03-31T07:41:55.212Z,1.23
2023-03-31T07:46:58.894Z,1.10
2023-03-31T07:52:03.018Z,1.50
2023-03-31T07:57:06.491Z,1.40
2023-03-31T08:02:09.032Z,1.63
2023-03-31T08:07:14.383Z,2.77
2023-03-31T08:12:16.977Z,5.10
2023-03-31T08:17:19.522Z,6.00
2023-03-31T08:22:23.516Z,4.93
2023-03-31T08:27:26.322Z,2.73
2023-03-31T08:32:28.770Z,3.70
2023-03-31T08:37:32.541Z,3.93
2023-03-31T08:42:40.300Z,2.80
2023-03-31T08:47:43.316Z,2.40
2023-03-31T08:52:51.237Z,2.70
2023-03-31T08:58:01.218Z,2.33
2023-03-31T09:03:08.419Z,2.10
2023-03-31T09:08:21.893Z,2.50
2023-03-31T09:13:51.429Z,2.20
2023-03-31T09:18:56.423Z,2.10
2023-03-31T09:24:06.812Z,2.67
2023-03-31T09:29:19.387Z,2.80
2023-03-31T09:34:27.471Z,3.00
2023-03-31T09:39:31.250Z,3.60
2023-03-31T09:44:40.050Z,2.90
2023-03-31T09:49:53.809Z,3.07
2023-03-31T09:55:01.541Z,2.50
2023-03-31T10:00:13.842Z,3.30
2023-03-31T10:05:31.826Z,2.83
2023-03-31T10:10:35.706Z,2.60
2023-03-31T10:15:41.728Z,2.73
2023-03-31T10:20:50.374Z,3.43
2023-03-31T10:25:54.231Z,3.30
2023-03-31T10:31:01.657Z,3.30
2023-03-31T10:36:10.660Z,3.30
2023-03-31T10:41:19.162Z,3.67
2023-03-31T10:46:22.914Z,3.00
2023-03-31T10:51:29.133Z,3.13
2023-03-31T10:56:41.128Z,2.60
2023-03-31T11:01:55.652Z,2.40
2023-03-31T11:07:10.541Z,2.90
2023-03-31T11:12:22.874Z,2.20
2023-03-31T11:17:38.329Z,2.20
2023-03-31T11:22:52.984Z,2.47
2023-03-31T11:28:21.952Z,2.30
2023-03-31T11:34:00.835Z,2.23
2023-03-31T11:39:22.351Z,1.60
2023-03-31T11:44:28.857Z,1.40
2023-03-31T11:49:38.298Z,1.90
2023-03-31T11:54:44.911Z,2.07
2023-03-31T11:59:54.373Z,1.83
2023-03-31T12:04:58.122Z,1.97
2023-03-31T12:10:06.828Z,2.07
2023-03-31T12:15:18.555Z,2.80
2023-03-31T12:20:31.118Z,2.63
2023-03-31T12:25:46.770Z,2.27
2023-03-31T12:30:53.718Z,2.17
2023-03-31T12:36:16.733Z,1.70
2023-03-31T12:41:27.413Z,2.23
2023-03-31T12:47:06.433Z,2.33
2023-03-31T12:52:13.472Z,1.73
2023-03-31T12:57:21.144Z,1.30
2023-03-31T13:02:27.165Z,1.35
2023-03-31T13:07:42.631Z,2.45
2023-03-31T13:13:02.080Z,1.70
2023-03-31T13:18:08.244Z,1.50
2023-03-31T13:23:21.032Z,1.60
2023-03-31T13:28:29.250Z,1.90
2023-03-31T13:33:41.662Z,1.80
2023-03-31T13:38:52.417Z,1.30
2023-03-31T13:44:21.851Z,1.30
2023-03-31T13:49:48.879Z,1.07
2023-03-31T13:55:19.488Z,0.90
2023-03-31T14:00:38.564Z,1.20
2023-03-31T14:05:45.016Z,0.93
2023-03-31T14:10:47.146Z,1.83
2023-03-31T14:15:52.586Z,1.00
2023-03-31T14:21:21.498Z,1.00
2023-03-31T14:26:46.954Z,0.90
2023-03-31T14:31:56.187Z,0.27
2023-03-31T14:37:03.633Z,0.50
2023-03-31T14:42:12.213Z,0.47
2023-03-31T14:47:16.948Z,0.20
2023-03-31T14:52:24.660Z,0.13
2023-03-31T14:57:32.328Z,0.30
2023-03-31T15:02:37.714Z,0.20
2023-03-31T15:07:42.793Z,0.17
2023-03-31T15:12:45.256Z,0.70
2023-03-31T15:17:49.437Z,0.33
2023-03-31T15:22:53.770Z,0.20
2023-03-31T15:28:00.017Z,0.40
2023-03-31T15:33:15.971Z,0.27
2023-03-31T15:38:24.776Z,0.40
2023-03-31T15:43:32.068Z,0.40
2023-03-31T15:48:36.771Z,0.40
2023-03-31T15:53:46.545Z,0.30
2023-03-31T15:59:00.354Z,0.50
2023-03-31T16:04:04.029Z,0.40
2023-03-31T16:09:09.559Z,0.70
2023-03-31T16:14:20.935Z,0.53
2023-03-31T16:19:27.721Z,0.93
2023-03-31T16:24:34.745Z,0.50
2023-03-31T16:29:38.389Z,0.40
2023-03-31T16:34:58.170Z,0.97
2023-03-31T16:40:01.789Z,0.30
2023-03-31T16:45:13.727Z,0.50
2023-03-31T16:50:17.305Z,0.20
2023-03-31T16:55:21.522Z,0.30
2023-03-31T17:00:24.439Z,0.43
2023-03-31T17:05:27.770Z,0.20
2023-03-31T17:10:31.924Z,0.30
2023-03-31T17:15:36.690Z,0.23
2023-03-31T17:20:39.964Z,0.27
2023-03-31T17:25:49.091Z,2.17
2023-03-31T17:30:51.628Z,0.40
2023-03-31T17:35:59.636Z,0.60
2023-03-31T17:41:07.164Z,0.57
2023-03-31T17:46:12.835Z,0.40
2023-03-31T17:51:19.976Z,0.33
2023-03-31T17:56:27.432Z,0.37
2023-03-31T18:01:32.508Z,0.70
2023-03-31T18:06:35.924Z,0.77
2023-03-31T18:11:39.730Z,0.70
2023-03-31T18:16:46.204Z,0.43
2023-03-31T18:21:50.676Z,0.40
2023-03-31T18:26:55.312Z,0.50
2023-03-31T18:31:59.289Z,1.63
2023-03-31T18:37:04.053Z,1.10
2023-03-31T18:42:09.849Z,1.10
2023-03-31T18:47:27.533Z,0.80
2023-03-31T18:52:33.925Z,1.00
2023-03-31T18:57:39.124Z,0.80
2023-03-31T19:02:46.225Z,0.50
2023-03-31T19:07:54.308Z,0.57
2023-03-31T19:13:00.129Z,0.60
2023-03-31T19:18:06.711Z,0.60
2023-03-31T19:23:12.135Z,0.50
2023-03-31T19:28:26.358Z,0.57
2023-03-31T19:33:30.005Z,0.50
2023-03-31T19:38:38.530Z,0.40
2023-03-31T19:43:48.258Z,0.70
2023-03-31T19:48:51.929Z,0.30
2023-03-31T19:53:56.603Z,0.40
2023-03-31T19:59:00.678Z,0.30
2023-03-31T20:04:04.720Z,0.40
2023-03-31T20:09:13.109Z,0.60
2023-03-31T20:14:18.748Z,0.20
2023-03-31T20:19:23.917Z,0.03
2023-03-31T20:24:28.422Z,0.00
2023-03-31T20:29:34.445Z,0.20
2023-03-31T20:34:38.064Z,0.10
2023-03-31T20:39:41.426Z,0.00
2023-03-31T20:44:46.688Z,0.13
2023-03-31T20:49:49.751Z,0.10
2023-03-31T20:54:52.688Z,0.10
2023-03-31T20:59:57.445Z,0.20
2023-03-31T21:05:00.032Z,0.23
2023-03-31T21:10:02.159Z,0.03
2023-03-31T21:15:06.848Z,0.10
2023-03-31T21:20:10.313Z,0.30
2023-03-31T21:25:13.022Z,0.20
2023-03-31T21:30:19.555Z,0.10
2023-03-31T21:35:21.799Z,0.30
2023-03-31T21:40:24.085Z,0.20
2023-03-31T21:45:27.495Z,0.60
2023-03-31T21:50:30.295Z,0.57
2023-03-31T21:55:33.152Z,0.40
2023-03-31T22:00:37.677Z,0.30
2023-03-31T22:05:40.406Z,0.33
2023-03-31T22:10:42.397Z,0.37
2023-03-31T22:15:46.348Z,0.30
2023-03-31T22:20:49.729Z,0.10
2023-03-31T22:25:52.191Z,0.10
2023-03-31T22:30:55.945Z,0.20
2023-03-31T22:35:58.472Z,0.63
2023-03-31T22:41:00.810Z,0.13
2023-03-31T22:46:06.454Z,0.20
2023-03-31T22:51:09.078Z,0.20
2023-03-31T22:56:13.640Z,0.30
2023-03-31T23:01:19.553Z,0.40
2023-03-31T23:06:22.130Z,0.50
2023-03-31T23:11:24.457Z,0.30
2023-03-31T23:16:28.464Z,0.40
2023-03-31T23:21:30.934Z,0.50
2023-03-31T23:26:35.133Z,0.50
2023-03-31T23:31:38.837Z,0.43
2023-03-31T23:36:41.494Z,0.43
2023-03-31T23:41:43.762Z,0.30
2023-03-31T23:46:47.596Z,0.30
2023-03-31T23:51:49.582Z,0.40
2023-03-31T23:56:51.583Z,0.30
